createdAt,value
2018-12-20T00:03:27.109Z,2.83
2018-12-20T00:08:33.252Z,3.30
2018-12-20T00:13:38.041Z,3.17
2018-12-20T00:18:43.037Z,3.05
2018-12-20T00:23:48.097Z,4.03
2018-12-20T00:28:52.918Z,5.47
2018-12-20T00:33:57.999Z,3.20
2018-12-20T00:39:03.123Z,3.10
2018-12-20T00:44:07.989Z,3.70
2018-12-20T00:49:13.052Z,3.40
2018-12-20T00:59:55.966Z,4.97
2018-12-20T01:05:12.374Z,4.10
2018-12-20T01:10:17.379Z,3.53
2018-12-20T01:15:22.213Z,3.73
2018-12-20T01:20:27.196Z,4.97
2018-12-20T01:25:33.025Z,3.35
2018-12-20T01:30:38.169Z,3.83
2018-12-20T01:35:43.047Z,4.55
2018-12-20T01:40:47.921Z,3.70
2018-12-20T01:45:52.849Z,2.83
2018-12-20T01:50:57.625Z,2.97
2018-12-20T01:56:02.451Z,2.30
2018-12-20T02:01:07.606Z,3.17
2018-12-20T02:06:12.769Z,2.97
2018-12-20T02:16:49.909Z,3.93
2018-12-20T02:21:54.874Z,3.50
2018-12-20T02:26:59.851Z,4.37
2018-12-20T02:32:04.688Z,4.07
2018-12-20T02:37:09.634Z,3.37
2018-12-20T02:42:14.716Z,3.27
2018-12-20T02:47:21.754Z,3.77
2018-12-20T02:52:26.683Z,1.50
2018-12-20T02:57:31.813Z,1.67
2018-12-20T03:02:36.816Z,1.70
2018-12-20T03:13:19.493Z,3.73
2018-12-20T03:18:28.223Z,3.37
2018-12-20T03:23:33.940Z,3.42
2018-12-20T03:28:39.328Z,4.37
2018-12-20T03:33:44.621Z,3.23
2018-12-20T03:38:49.511Z,4.00
2018-12-20T03:43:54.613Z,3.80
2018-12-20T03:48:59.618Z,2.87
2018-12-20T03:54:04.686Z,2.10
2018-12-20T03:59:09.798Z,3.33
2018-12-20T04:04:14.678Z,2.93
2018-12-20T04:09:19.946Z,2.33
2018-12-20T04:14:25.029Z,3.47
2018-12-20T04:19:30.305Z,3.80
2018-12-20T04:24:35.104Z,3.30
2018-12-20T04:29:40.275Z,3.37
2018-12-20T04:34:45.268Z,2.97
2018-12-20T04:39:50.551Z,2.40
2018-12-20T04:44:55.277Z,3.23
2018-12-20T04:50:00.128Z,3.27
2018-12-20T04:55:05.307Z,2.37
2018-12-20T05:00:12.318Z,3.37
2018-12-20T05:05:17.410Z,2.93
2018-12-20T05:10:22.608Z,2.72
2018-12-20T05:15:27.622Z,3.40
2018-12-20T05:20:32.747Z,2.40
2018-12-20T05:25:37.723Z,2.60
2018-12-20T05:30:42.568Z,1.65
2018-12-20T05:35:47.679Z,2.50
2018-12-20T05:40:52.444Z,2.40
2018-12-20T05:46:04.475Z,3.30
2018-12-20T05:51:04.192Z,4.50
2018-12-20T05:56:08.982Z,3.63
2018-12-20T06:01:13.858Z,4.03
2018-12-20T06:06:18.975Z,3.47
2018-12-20T06:11:35.929Z,3.10
2018-12-20T06:16:40.827Z,2.73
2018-12-20T06:21:45.793Z,3.00
2018-12-20T06:26:50.482Z,3.30
2018-12-20T06:31:55.347Z,3.43
2018-12-20T06:37:00.012Z,3.97
2018-12-20T06:42:04.908Z,3.20
2018-12-20T06:47:09.798Z,3.30
2018-12-20T06:52:14.679Z,2.77
2018-12-20T06:57:19.443Z,2.73
2018-12-20T07:02:24.338Z,2.67
2018-12-20T07:13:01.594Z,2.03
2018-12-20T07:18:06.586Z,2.27
2018-12-20T07:23:11.609Z,2.80
2018-12-20T07:28:16.620Z,3.43
2018-12-20T07:33:21.415Z,1.20
2018-12-20T07:38:26.332Z,1.87
2018-12-20T07:43:31.039Z,2.77
2018-12-20T07:48:35.746Z,1.77
2018-12-20T07:53:40.564Z,1.70
2018-12-20T07:58:45.414Z,2.20
2018-12-20T08:03:50.503Z,2.65
2018-12-20T08:08:55.117Z,2.83
2018-12-20T08:13:59.962Z,2.00
2018-12-20T08:19:04.928Z,2.40
2018-12-20T08:24:09.861Z,2.03
2018-12-20T08:29:14.767Z,2.00
2018-12-20T08:34:19.642Z,1.90
2018-12-20T08:39:24.492Z,1.97
2018-12-20T08:44:29.408Z,2.60
2018-12-20T08:49:34.593Z,2.17
2018-12-20T08:54:39.435Z,2.67
2018-12-20T08:59:44.308Z,2.10
2018-12-20T09:04:49.134Z,2.17
2018-12-20T09:09:53.902Z,1.92
2018-12-20T09:14:58.538Z,1.73
2018-12-20T09:20:03.508Z,1.50
2018-12-20T09:25:08.461Z,2.50
2018-12-20T09:30:13.262Z,2.10
2018-12-20T09:35:18.195Z,2.10
2018-12-20T09:40:23.154Z,2.07
2018-12-20T09:45:27.908Z,2.20
2018-12-20T09:50:32.763Z,1.90
2018-12-20T09:55:37.583Z,1.33
2018-12-20T10:00:42.322Z,0.70
2018-12-20T10:05:47.043Z,0.50
2018-12-20T10:10:51.799Z,0.60
2018-12-20T10:15:56.641Z,0.67
2018-12-20T10:21:01.459Z,1.20
2018-12-20T10:26:06.293Z,1.33
2018-12-20T10:31:11.173Z,1.10
2018-12-20T10:36:16.088Z,1.90
2018-12-20T10:41:21.016Z,2.17
2018-12-20T10:46:25.808Z,1.80
2018-12-20T10:51:31.433Z,2.10
2018-12-20T10:56:36.212Z,2.10
2018-12-20T11:01:45.034Z,2.37
2018-12-20T11:06:53.858Z,2.57
2018-12-20T11:12:02.741Z,2.03
2018-12-20T11:17:07.617Z,2.07
2018-12-20T11:22:12.418Z,1.80
2018-12-20T11:27:17.319Z,2.53
2018-12-20T11:32:22.083Z,3.50
2018-12-20T11:37:26.727Z,4.37
2018-12-20T11:42:31.579Z,3.30
2018-12-20T11:47:36.362Z,3.03
2018-12-20T11:52:42.488Z,2.63
2018-12-20T11:57:47.630Z,3.00
2018-12-20T12:02:52.539Z,4.53
2018-12-20T12:07:57.309Z,3.60
2018-12-20T12:13:02.052Z,3.90
2018-12-20T12:18:06.995Z,3.30
2018-12-20T12:23:11.768Z,3.43
2018-12-20T12:28:16.592Z,3.13
2018-12-20T12:33:21.369Z,3.13
2018-12-20T12:38:26.202Z,3.13
2018-12-20T12:43:31.068Z,1.97
2018-12-20T12:48:36.110Z,2.47
2018-12-20T12:53:41.049Z,2.52
2018-12-20T12:58:46.007Z,2.30
2018-12-20T13:03:50.787Z,2.37
2018-12-20T13:08:55.628Z,2.47
2018-12-20T13:14:00.428Z,1.97
2018-12-20T13:19:05.247Z,2.70
2018-12-20T13:24:10.249Z,2.73
2018-12-20T13:29:15.010Z,1.70
2018-12-20T13:34:20.008Z,2.30
2018-12-20T13:39:24.928Z,1.00
2018-12-20T13:44:29.908Z,3.00
2018-12-20T13:49:34.788Z,2.13
2018-12-20T13:54:39.639Z,2.52
2018-12-20T13:59:44.539Z,2.27
2018-12-20T14:04:49.389Z,2.00
2018-12-20T14:09:54.348Z,2.83
2018-12-20T14:14:59.267Z,2.20
2018-12-20T14:20:04.687Z,2.60
2018-12-20T14:25:09.788Z,2.57
2018-12-20T14:30:14.829Z,2.17
2018-12-20T14:35:19.647Z,1.97
2018-12-20T14:40:24.607Z,2.93
2018-12-20T14:45:29.468Z,2.27
2018-12-20T14:50:34.868Z,2.17
2018-12-20T14:55:40.767Z,3.40
2018-12-20T15:06:24.027Z,1.60
2018-12-20T15:11:29.029Z,1.47
2018-12-20T15:16:33.808Z,1.30
2018-12-20T15:21:38.906Z,1.33
2018-12-20T15:26:43.767Z,1.72
2018-12-20T15:31:53.392Z,0.93
2018-12-20T15:36:55.666Z,0.93
2018-12-20T15:42:00.707Z,0.97
2018-12-20T15:47:05.610Z,0.43
2018-12-20T15:52:10.547Z,0.40
2018-12-20T15:57:15.407Z,0.67
2018-12-20T16:02:20.206Z,0.80
2018-12-20T16:07:25.107Z,0.50
2018-12-20T16:12:29.909Z,0.20
2018-12-20T16:17:35.151Z,0.30
2018-12-20T16:22:39.927Z,1.18
2018-12-20T16:27:44.767Z,1.57
2018-12-20T16:32:49.707Z,1.03
2018-12-20T16:37:54.787Z,0.77
2018-12-20T16:42:59.571Z,0.60
2018-12-20T16:48:04.507Z,0.60
2018-12-20T16:53:09.367Z,0.40
2018-12-20T16:58:14.446Z,0.88
2018-12-20T17:03:19.326Z,0.80
2018-12-20T17:08:24.266Z,1.00
2018-12-20T17:13:29.291Z,0.53
2018-12-20T17:18:35.129Z,0.30
2018-12-20T17:23:40.151Z,0.17
2018-12-20T17:28:45.066Z,0.40
2018-12-20T17:33:50.046Z,0.10
2018-12-20T17:38:54.939Z,0.30
2018-12-20T17:43:59.706Z,0.20
2018-12-20T17:49:04.689Z,0.10
2018-12-20T17:54:09.746Z,0.10
2018-12-20T17:59:14.706Z,0.20
2018-12-20T18:04:19.707Z,0.47
2018-12-20T18:09:24.668Z,0.80
2018-12-20T18:14:29.607Z,3.07
2018-12-20T18:19:38.984Z,2.45
2018-12-20T18:24:42.355Z,4.00
2018-12-20T18:29:47.439Z,1.80
2018-12-20T18:34:52.367Z,0.97
2018-12-20T18:39:57.987Z,2.47
2018-12-20T18:45:03.127Z,2.70
2018-12-20T18:50:09.987Z,2.43
2018-12-20T18:55:14.993Z,2.00
2018-12-20T19:00:19.928Z,1.13
2018-12-20T19:05:24.766Z,1.73
2018-12-20T19:10:31.807Z,1.70
2018-12-20T19:15:36.667Z,1.40
2018-12-20T19:20:41.648Z,0.93
2018-12-20T19:25:46.386Z,0.70
2018-12-20T19:30:51.288Z,1.30
2018-12-20T19:35:56.179Z,0.77
2018-12-20T19:41:01.198Z,0.80
2018-12-20T19:46:06.155Z,0.60
2018-12-20T19:51:10.899Z,1.80
2018-12-20T19:56:15.839Z,2.10
2018-12-20T20:01:20.783Z,3.73
2018-12-20T20:06:25.693Z,1.77
2018-12-20T20:11:30.648Z,1.77
2018-12-20T20:21:57.689Z,2.20
2018-12-20T20:27:02.548Z,1.07
2018-12-20T20:32:07.529Z,2.40
2018-12-20T20:37:12.373Z,3.60
2018-12-20T20:42:17.168Z,1.43
2018-12-20T20:47:21.965Z,0.93
2018-12-20T20:52:26.698Z,0.88
2018-12-20T20:57:31.568Z,1.20
2018-12-20T21:02:36.508Z,0.53
2018-12-20T21:07:41.778Z,0.23
2018-12-20T21:12:46.703Z,0.00
2018-12-20T21:17:51.479Z,0.00
2018-12-20T21:22:56.399Z,0.50
2018-12-20T21:28:01.223Z,0.10
2018-12-20T21:33:06.319Z,0.60
2018-12-20T21:38:11.225Z,0.50
2018-12-20T21:43:16.118Z,0.00
2018-12-20T21:48:21.073Z,0.73
2018-12-20T21:53:25.781Z,1.23
2018-12-20T21:58:30.714Z,2.97
2018-12-20T22:03:35.943Z,1.57
2018-12-20T22:08:40.809Z,0.80
2018-12-20T22:13:45.551Z,1.62
2018-12-20T22:18:50.349Z,1.60
2018-12-20T22:23:55.161Z,1.20
2018-12-20T22:28:59.938Z,0.70
2018-12-20T22:34:04.864Z,0.73
2018-12-20T22:39:09.569Z,0.30
2018-12-20T22:44:14.484Z,0.30
2018-12-20T22:49:19.493Z,0.10
2018-12-20T22:54:24.324Z,0.20
2018-12-20T22:59:29.043Z,0.40
2018-12-20T23:04:33.933Z,0.23
2018-12-20T23:09:38.739Z,0.20
2018-12-20T23:14:43.645Z,0.60
2018-12-20T23:19:49.138Z,0.30
2018-12-20T23:24:54.095Z,0.10
2018-12-20T23:29:58.861Z,0.30
2018-12-20T23:35:03.876Z,0.80
2018-12-20T23:40:08.618Z,1.43
2018-12-20T23:45:13.473Z,0.50
2018-12-20T23:50:18.423Z,0.10
2018-12-20T23:55:23.366Z,0.37
